Time;durP1;ratioP1;P1;durP2;ratioP2;P2;SDS_P1;SDS_P2;PMS_P1;PMS_P2;Temp;Humidity;BMP_temperature;BMP_pressure;BME280_temperature;BME280_humidity;BME280_pressure;Samples;Min_cycle;Max_cycle;Signal;HPM_P1;HPM_P2
2021/01/17 00:01:03;;;;;;;6.60;3.40;;;;;;;-3.96;78.85;101667.09;4989776;28;20038;-75
2021/01/17 00:03:28;;;;;;;8.20;3.80;;;;;;;-3.97;78.15;101673.44;4987139;28;20026;-74
2021/01/17 00:05:55;;;;;;;8.38;3.85;;;;;;;-3.96;78.50;101663.59;4989251;28;20505;-76
2021/01/17 00:08:20;;;;;;;6.15;3.33;;;;;;;-3.98;78.98;101663.78;4971787;28;20018;-74
2021/01/17 00:10:46;;;;;;;7.93;4.10;;;;;;;-3.98;78.89;101668.25;4987508;28;20117;-75
2021/01/17 00:13:11;;;;;;;6.05;3.22;;;;;;;-3.96;79.08;101666.25;4987860;28;20141;-74
2021/01/17 00:15:37;;;;;;;6.25;3.00;;;;;;;-3.97;78.93;101665.44;4972787;28;20030;-75
2021/01/17 00:18:03;;;;;;;7.68;3.83;;;;;;;-3.95;78.72;101673.28;4993078;28;20042;-76
2021/01/17 00:20:29;;;;;;;6.78;3.85;;;;;;;-3.90;78.52;101684.28;4984448;28;20103;-75
2021/01/17 00:23:01;;;;;;;4.80;3.17;;;;;;;-3.87;78.72;101681.31;4988590;28;20109;-75
2021/01/17 00:25:26;;;;;;;5.72;2.92;;;;;;;-3.84;79.40;101687.16;4971194;28;20092;-75
2021/01/17 00:27:52;;;;;;;7.57;3.60;;;;;;;-3.82;79.08;101682.53;4991777;28;20054;-75
2021/01/17 00:30:22;;;;;;;6.70;3.53;;;;;;;-3.79;78.79;101686.69;4985528;28;20026;-74
2021/01/17 00:32:48;;;;;;;6.32;3.63;;;;;;;-3.77;79.08;101676.69;4989129;28;20049;-75
2021/01/17 00:35:14;;;;;;;6.38;3.38;;;;;;;-3.74;79.25;101673.72;4989358;28;20022;-76
2021/01/17 00:37:39;;;;;;;6.20;3.83;;;;;;;-3.72;79.13;101676.25;4972375;28;20026;-75
2021/01/17 00:40:05;;;;;;;8.38;3.60;;;;;;;-3.70;79.71;101672.44;4986623;28;20022;-75
2021/01/17 00:42:30;;;;;;;7.88;3.65;;;;;;;-3.64;79.48;101674.44;4992333;28;20057;-74
2021/01/17 00:44:56;;;;;;;5.75;3.65;;;;;;;-3.62;78.99;101675.13;4989662;28;20022;-75
2021/01/17 00:47:21;;;;;;;6.13;3.40;;;;;;;-3.60;79.24;101678.47;4992822;28;20500;-75
2021/01/17 00:49:47;;;;;;;6.22;3.72;;;;;;;-3.59;79.04;101673.97;4987644;28;20071;-75
2021/01/17 00:52:19;;;;;;;7.57;3.90;;;;;;;-3.60;79.17;101669.66;4976600;28;20041;-76
2021/01/17 00:54:45;;;;;;;6.45;3.45;;;;;;;-3.59;79.12;101664.16;4985825;28;20436;-75
2021/01/17 00:57:10;;;;;;;6.05;3.40;;;;;;;-3.57;79.32;101664.84;4993691;28;20031;-74
2021/01/17 00:59:36;;;;;;;5.80;3.50;;;;;;;-3.55;79.61;101669.16;4987953;28;20073;-75
2021/01/17 01:02:01;;;;;;;6.85;3.15;;;;;;;-3.54;79.42;101670.84;4992196;28;20033;-75
2021/01/17 01:04:28;;;;;;;6.38;3.25;;;;;;;-3.54;79.25;101677.00;4988875;28;20476;-75
2021/01/17 01:06:54;;;;;;;7.32;3.55;;;;;;;-3.52;79.19;101669.69;4975444;28;20034;-75
2021/01/17 01:09:19;;;;;;;5.78;3.67;;;;;;;-3.50;79.76;101666.84;4988906;28;20467;-75
2021/01/17 01:11:44;;;;;;;6.43;3.47;;;;;;;-3.49;79.49;101669.38;4993137;28;20034;-74
2021/01/17 01:14:10;;;;;;;8.65;3.80;;;;;;;-3.46;79.78;101662.88;4968843;28;20077;-74
2021/01/17 01:16:35;;;;;;;6.85;3.70;;;;;;;-3.44;79.65;101661.75;4989599;28;20026;-75
2021/01/17 01:19:01;;;;;;;8.30;4.30;;;;;;;-3.40;79.44;101672.91;4987358;28;20031;-76
2021/01/17 01:21:28;;;;;;;5.10;3.30;;;;;;;-3.39;80.04;101663.91;4993056;28;20038;-74
2021/01/17 01:23:53;;;;;;;7.57;3.85;;;;;;;-3.38;79.82;101671.75;4989335;28;20026;-76
2021/01/17 01:26:21;;;;;;;7.15;3.55;;;;;;;-3.35;79.93;101665.25;4992852;28;20041;-75
2021/01/17 01:28:50;;;;;;;7.35;3.85;;;;;;;-3.36;79.84;101669.78;4987081;28;20034;-75
2021/01/17 01:31:17;;;;;;;7.50;3.47;;;;;;;-3.32;80.12;101664.94;4990414;28;20624;-76
2021/01/17 01:33:42;;;;;;;6.32;3.60;;;;;;;-3.29;80.20;101663.78;4971667;28;20038;-75
2021/01/17 01:36:08;;;;;;;7.43;3.60;;;;;;;-3.28;79.61;101663.59;4989973;28;20387;-75
2021/01/17 01:38:33;;;;;;;7.85;3.80;;;;;;;-3.26;80.22;101658.13;4989835;28;20117;-75
2021/01/17 01:40:59;;;;;;;9.27;3.88;;;;;;;-3.27;79.85;101667.97;4992998;28;20383;-77
2021/01/17 01:43:24;;;;;;;7.75;3.67;;;;;;;-3.25;79.62;101659.78;4989823;28;20034;-76
2021/01/17 01:45:50;;;;;;;6.10;3.90;;;;;;;-3.25;79.67;101662.44;4992476;28;20018;-76
2021/01/17 01:48:16;;;;;;;8.38;4.22;;;;;;;-3.23;79.84;101658.63;4993868;28;20033;-75
2021/01/17 01:50:42;;;;;;;7.53;4.25;;;;;;;-3.22;80.09;101665.66;4982278;28;20034;-75
2021/01/17 01:53:07;;;;;;;6.95;3.90;;;;;;;-3.23;80.21;101653.28;4959256;28;20101;-75
2021/01/17 01:55:33;;;;;;;5.80;3.30;;;;;;;-3.21;80.24;101655.81;4971439;28;20026;-75
2021/01/17 01:58:00;;;;;;;8.10;4.07;;;;;;;-3.22;80.22;101654.13;4976529;28;20096;-74
2021/01/17 02:00:25;;;;;;;8.20;4.00;;;;;;;-3.19;80.53;101660.00;4987537;28;20031;-74
2021/01/17 02:02:51;;;;;;;6.18;3.65;;;;;;;-3.17;79.91;101663.31;4989635;28;20365;-76
2021/01/17 02:05:16;;;;;;;6.82;3.92;;;;;;;-3.16;79.93;101651.66;4991169;28;20391;-75
2021/01/17 02:07:49;;;;;;;7.72;3.78;;;;;;;-3.14;80.29;101663.00;4990261;28;20033;-75
2021/01/17 02:10:17;;;;;;;6.63;3.53;;;;;;;-3.13;80.54;101663.84;4989477;28;20026;-77
2021/01/17 02:12:52;;;;;;;6.95;4.18;;;;;;;-3.10;79.94;101662.69;4976396;28;20104;-75
2021/01/17 02:15:22;;;;;;;7.90;4.10;;;;;;;-3.08;80.05;101663.31;4990586;28;20109;-75
2021/01/17 02:17:48;;;;;;;6.85;3.58;;;;;;;-3.06;80.10;101664.00;4975127;28;20022;-75
2021/01/17 02:20:25;;;;;;;7.35;4.32;;;;;;;-3.04;80.27;101662.03;4971199;28;20439;-76
2021/01/17 02:23:02;;;;;;;7.07;4.05;;;;;;;-3.03;80.67;101658.34;4991158;28;20369;-74
2021/01/17 02:25:33;;;;;;;7.93;4.10;;;;;;;-3.02;80.20;101654.69;4984279;28;20034;-74
2021/01/17 02:28:00;;;;;;;8.85;3.92;;;;;;;-3.00;80.32;101663.34;4985855;28;20121;-74
2021/01/17 02:30:26;;;;;;;7.40;3.53;;;;;;;-2.99;80.78;101659.72;4967227;28;20026;-75
2021/01/17 02:32:55;;;;;;;10.10;4.82;;;;;;;-2.97;80.46;101655.06;4974785;28;20395;-75
2021/01/17 02:35:20;;;;;;;10.10;4.32;;;;;;;-2.97;80.75;101663.88;4983421;28;20058;-74
2021/01/17 02:37:55;;;;;;;6.40;4.05;;;;;;;-2.96;80.31;101662.03;4974772;28;20103;-75
2021/01/17 02:40:32;;;;;;;6.95;3.63;;;;;;;-2.93;80.67;101659.03;4974323;28;20033;-74
2021/01/17 02:42:58;;;;;;;9.02;4.47;;;;;;;-2.92;81.00;101666.03;4990811;28;20057;-74
2021/01/17 02:45:23;;;;;;;6.57;3.95;;;;;;;-2.91;80.40;101662.41;4968139;28;20041;-75
2021/01/17 02:47:49;;;;;;;7.38;4.30;;;;;;;-2.89;80.90;101663.06;4990803;28;20030;-74
2021/01/17 02:50:14;;;;;;;7.95;4.15;;;;;;;-2.87;80.90;101658.38;4987336;28;20038;-75
2021/01/17 02:52:48;;;;;;;7.18;3.50;;;;;;;-2.87;80.54;101660.22;4990526;28;20053;-74
2021/01/17 02:55:13;;;;;;;7.22;3.78;;;;;;;-2.85;80.78;101660.91;4973036;28;20112;-75
2021/01/17 02:57:38;;;;;;;7.07;4.50;;;;;;;-2.84;80.60;101655.38;4988442;28;20030;-75
2021/01/17 03:00:09;;;;;;;7.07;4.38;;;;;;;-2.83;80.91;101659.75;4972097;28;20038;-74
2021/01/17 03:02:36;;;;;;;7.65;4.60;;;;;;;-2.81;81.23;101656.88;4971474;28;20034;-75
2021/01/17 03:05:06;;;;;;;8.73;4.15;;;;;;;-2.78;80.72;101649.41;4990522;28;20027;-75
2021/01/17 03:07:33;;;;;;;10.18;6.10;;;;;;;-2.77;80.99;101651.06;4990948;28;20814;-75
2021/01/17 03:10:00;;;;;;;7.18;4.00;;;;;;;-2.74;80.84;101652.56;4965617;28;20033;-75
2021/01/17 03:12:25;;;;;;;7.10;4.18;;;;;;;-2.73;81.08;101665.78;4982670;28;20034;-76
2021/01/17 03:14:50;;;;;;;8.20;4.35;;;;;;;-2.71;80.66;101658.41;4988457;28;20037;-76
2021/01/17 03:17:16;;;;;;;7.90;4.45;;;;;;;-2.68;80.95;101662.59;4991361;28;20118;-75
2021/01/17 03:19:41;;;;;;;8.45;4.85;;;;;;;-2.64;81.13;101663.13;4985294;28;20031;-75
2021/01/17 03:22:07;;;;;;;7.45;4.40;;;;;;;-2.60;80.58;101664.44;4991227;28;20030;-74
2021/01/17 03:24:32;;;;;;;8.95;4.50;;;;;;;-2.61;80.61;101668.13;4990428;28;20030;-75
2021/01/17 03:26:58;;;;;;;9.35;4.90;;;;;;;-2.58;80.87;101667.78;4992518;28;20492;-74
2021/01/17 03:29:23;;;;;;;9.43;4.75;;;;;;;-2.55;81.09;101670.13;4988299;28;20073;-75
2021/01/17 03:31:48;;;;;;;8.73;4.55;;;;;;;-2.56;81.34;101663.94;4991194;28;20030;-75
2021/01/17 03:34:14;;;;;;;8.63;4.85;;;;;;;-2.54;81.27;101669.09;4988433;28;20475;-76
2021/01/17 03:36:39;;;;;;;11.05;4.93;;;;;;;-2.51;81.33;101674.09;4991432;28;20026;-75
2021/01/17 03:39:05;;;;;;;8.65;4.50;;;;;;;-2.46;81.56;101667.31;4989175;28;20034;-75
2021/01/17 03:41:30;;;;;;;7.57;4.55;;;;;;;-2.43;81.42;101663.44;4987054;28;20026;-75
2021/01/17 03:43:56;;;;;;;9.48;4.70;;;;;;;-2.41;81.42;101669.44;4988771;28;20049;-75
2021/01/17 03:46:21;;;;;;;8.65;4.65;;;;;;;-2.41;81.41;101672.13;4984454;28;20031;-76
2021/01/17 03:48:46;;;;;;;8.13;4.28;;;;;;;-2.41;81.17;101672.13;4992395;28;20018;-74
2021/01/17 03:51:12;;;;;;;10.48;4.97;;;;;;;-2.39;81.25;101672.78;4989635;28;20360;-75
2021/01/17 03:53:37;;;;;;;7.88;4.30;;;;;;;-2.36;81.21;101672.47;4990066;28;20510;-75
2021/01/17 03:56:03;;;;;;;11.45;5.22;;;;;;;-2.32;81.27;101670.28;4983184;28;20038;-76
2021/01/17 03:58:28;;;;;;;8.20;4.57;;;;;;;-2.33;81.30;101669.44;4992157;28;20022;-76
2021/01/17 04:00:53;;;;;;;8.82;4.88;;;;;;;-2.30;81.15;101671.78;4989134;28;20030;-75
2021/01/17 04:03:19;;;;;;;10.70;5.35;;;;;;;-2.29;81.34;101668.13;4989850;28;20081;-75
2021/01/17 04:05:44;;;;;;;9.32;4.95;;;;;;;-2.25;81.34;101673.97;4977573;28;20403;-76
2021/01/17 04:08:10;;;;;;;11.63;6.10;;;;;;;-2.25;81.81;101672.13;4990268;28;20038;-76
2021/01/17 04:10:35;;;;;;;10.18;5.90;;;;;;;-2.22;81.68;101665.59;4988521;28;20026;-75
2021/01/17 04:13:00;;;;;;;7.68;4.72;;;;;;;-2.19;81.22;101672.44;4990149;28;20030;-75
2021/01/17 04:15:26;;;;;;;9.60;5.28;;;;;;;-2.16;81.24;101672.13;4987853;28;20034;-74
2021/01/17 04:17:51;;;;;;;8.10;4.55;;;;;;;-2.13;81.19;101666.44;4989765;28;20480;-75
2021/01/17 04:20:16;;;;;;;9.32;5.03;;;;;;;-2.10;81.08;101666.09;4990904;28;20030;-75
2021/01/17 04:22:42;;;;;;;9.93;4.57;;;;;;;-2.06;81.36;101672.78;4991710;28;20026;-76
2021/01/17 04:25:08;;;;;;;7.22;4.28;;;;;;;-2.03;81.37;101675.09;4991829;28;20072;-75
2021/01/17 04:27:33;;;;;;;9.18;4.88;;;;;;;-2.01;81.69;101673.94;4992189;28;20043;-76
2021/01/17 04:29:58;;;;;;;9.65;4.90;;;;;;;-1.98;81.61;101675.44;4993102;28;20034;-76
2021/01/17 04:32:24;;;;;;;10.10;5.03;;;;;;;-1.96;81.35;101668.09;4992091;28;20030;-75
2021/01/17 04:34:50;;;;;;;8.95;5.03;;;;;;;-1.97;81.52;101666.41;4987025;28;20473;-74
2021/01/17 04:37:22;;;;;;;11.85;6.03;;;;;;;-1.96;81.35;101668.09;4993616;28;20033;-74
2021/01/17 04:39:48;;;;;;;13.88;5.57;;;;;;;-1.96;81.57;101664.59;4977850;28;20105;-74
2021/01/17 04:42:18;;;;;;;9.60;5.15;;;;;;;-1.95;81.69;101652.91;4975791;28;20157;-76
2021/01/17 04:44:57;;;;;;;9.65;5.18;;;;;;;-1.94;81.73;101660.72;4976808;28;20033;-75
2021/01/17 04:47:22;;;;;;;9.98;4.88;;;;;;;-1.92;81.85;101657.88;4990413;28;20484;-75
2021/01/17 04:49:52;;;;;;;8.20;4.55;;;;;;;-1.90;81.77;101662.06;4993018;28;20029;-75
2021/01/17 04:52:20;;;;;;;8.65;4.47;;;;;;;-1.88;81.73;101653.88;4989059;28;20449;-75
2021/01/17 04:54:45;;;;;;;9.30;4.88;;;;;;;-1.87;81.45;101653.69;4992901;28;20050;-74
2021/01/17 04:57:33;;;;;;;8.27;4.53;;;;;;;-1.85;81.60;101659.72;4990380;28;20038;-75
2021/01/17 05:00:07;;;;;;;10.73;5.53;;;;;;;-1.83;81.88;101662.22;4978160;28;20034;-75
2021/01/17 05:03:11;;;;;;;7.97;4.45;;;;;;;-1.84;81.57;101664.03;5008356;28;20369;-76
2021/01/17 05:05:42;;;;;;;6.80;4.07;;;;;;;-1.82;81.67;101666.56;4988970;28;20056;-75
2021/01/17 05:08:25;;;;;;;9.35;5.03;;;;;;;-1.81;81.57;101665.53;4968719;28;20038;-75
2021/01/17 05:11:01;;;;;;;7.18;3.63;;;;;;;-1.81;81.39;101661.03;4992417;28;20034;-75
2021/01/17 05:13:36;;;;;;;9.43;4.65;;;;;;;-1.80;81.61;101664.56;4988065;28;20026;-75
2021/01/17 05:16:06;;;;;;;8.48;4.07;;;;;;;-1.80;81.56;101668.06;5001224;28;20027;-75
2021/01/17 05:18:31;;;;;;;6.78;4.45;;;;;;;-1.77;81.82;101676.72;4971396;28;20031;-76
2021/01/17 05:20:59;;;;;;;9.48;4.55;;;;;;;-1.74;81.55;101671.06;5002960;28;20427;-75
2021/01/17 05:23:24;;;;;;;7.28;4.35;;;;;;;-1.74;81.74;101668.41;4988045;28;20046;-75
2021/01/17 05:25:50;;;;;;;7.45;4.20;;;;;;;-1.72;81.60;101674.38;4983572;28;20049;-76
2021/01/17 05:28:15;;;;;;;7.70;4.47;;;;;;;-1.72;81.62;101671.69;4972817;28;20054;-74
2021/01/17 05:30:44;;;;;;;9.65;4.22;;;;;;;-1.71;82.00;101676.91;4991735;28;20023;-76
2021/01/17 05:33:10;;;;;;;7.72;4.30;;;;;;;-1.69;81.71;101674.03;4974575;28;20084;-76
2021/01/17 05:35:35;;;;;;;6.43;3.28;;;;;;;-1.68;82.11;101673.88;4990273;28;20390;-75
2021/01/17 05:38:00;;;;;;;6.55;3.90;;;;;;;-1.65;82.04;101670.03;4992960;28;20035;-75
2021/01/17 05:40:26;;;;;;;7.05;3.67;;;;;;;-1.64;81.61;101671.69;4987721;28;20030;-76
2021/01/17 05:42:51;;;;;;;7.38;4.18;;;;;;;-1.62;81.54;101675.03;4975884;28;20029;-75
2021/01/17 05:45:21;;;;;;;6.30;3.85;;;;;;;-1.60;81.73;101668.50;4992879;28;20084;-75
2021/01/17 05:48:03;;;;;;;8.60;3.83;;;;;;;-1.58;81.80;101677.19;4991799;28;20038;-76
2021/01/17 05:50:30;;;;;;;6.18;3.95;;;;;;;-1.56;81.99;101674.34;4985073;28;20058;-76
2021/01/17 05:52:57;;;;;;;8.18;4.07;;;;;;;-1.55;81.94;101672.50;4989873;28;20030;-75
2021/01/17 05:55:32;;;;;;;6.57;3.67;;;;;;;-1.55;81.70;101676.03;4989474;28;20511;-74
2021/01/17 05:58:25;;;;;;;7.40;3.55;;;;;;;-1.53;81.80;101676.66;4987590;28;20031;-75
2021/01/17 06:00:54;;;;;;;7.82;3.97;;;;;;;-1.53;82.00;101675.84;4986813;28;20108;-75
2021/01/17 06:03:32;;;;;;;6.28;3.47;;;;;;;-1.53;82.01;101673.97;4975197;28;20101;-75
2021/01/17 06:05:59;;;;;;;5.93;3.72;;;;;;;-1.52;82.06;101678.34;4990237;28;20030;-74
2021/01/17 06:08:25;;;;;;;5.13;3.15;;;;;;;-1.50;82.01;101673.66;4987957;28;20387;-75
2021/01/17 06:10:51;;;;;;;6.63;3.33;;;;;;;-1.49;82.13;101678.00;4973564;28;20503;-74
2021/01/17 06:13:23;;;;;;;5.78;3.42;;;;;;;-1.46;82.13;101666.94;4974964;28;20018;-76
2021/01/17 06:15:49;;;;;;;8.13;3.67;;;;;;;-1.47;82.07;101670.66;4993095;28;20061;-75
2021/01/17 06:18:17;;;;;;;6.93;3.75;;;;;;;-1.47;82.20;101662.63;4988865;28;20026;-75
2021/01/17 06:20:43;;;;;;;8.85;4.15;;;;;;;-1.45;81.86;101665.94;4969309;28;20544;-74
2021/01/17 06:23:08;;;;;;;8.32;4.03;;;;;;;-1.44;81.92;101683.66;4972657;28;20030;-75
2021/01/17 06:25:34;;;;;;;7.50;4.57;;;;;;;-1.43;81.90;101674.63;4958761;28;20030;-76
2021/01/17 06:28:09;;;;;;;7.97;4.10;;;;;;;-1.42;82.03;101679.00;4975530;28;20046;-75
2021/01/17 06:30:34;;;;;;;6.45;3.47;;;;;;;-1.42;82.13;101676.31;4987329;28;20026;-74
2021/01/17 06:33:01;;;;;;;7.07;3.78;;;;;;;-1.42;82.12;101676.31;4989730;28;20023;-75
2021/01/17 06:35:33;;;;;;;8.05;3.97;;;;;;;-1.40;82.38;101689.50;4988673;28;20042;-75
2021/01/17 06:38:18;;;;;;;8.82;3.78;;;;;;;-1.38;82.14;101682.97;4989625;28;20061;-75
2021/01/17 06:40:44;;;;;;;7.28;4.15;;;;;;;-1.37;81.90;101679.28;4991267;28;20117;-76
2021/01/17 06:43:10;;;;;;;7.53;3.35;;;;;;;-1.36;82.08;101682.81;4988503;28;20022;-76
2021/01/17 06:45:54;;;;;;;10.13;4.05;;;;;;;-1.33;82.44;101686.97;4987317;28;20049;-75
2021/01/17 06:48:23;;;;;;;5.93;3.40;;;;;;;-1.32;81.92;101691.31;4987952;28;20621;-75
2021/01/17 06:50:49;;;;;;;6.30;3.35;;;;;;;-1.32;81.84;101686.78;4991294;28;20030;-75
2021/01/17 06:53:24;;;;;;;6.43;3.92;;;;;;;-1.31;82.17;101692.97;4984614;28;20404;-74
2021/01/17 06:55:50;;;;;;;6.00;3.28;;;;;;;-1.30;82.00;101691.97;4990360;28;20484;-76
2021/01/17 06:58:19;;;;;;;6.80;3.10;;;;;;;-1.30;82.11;101705.34;4988922;28;20042;-75
2021/01/17 07:00:45;;;;;;;5.68;3.20;;;;;;;-1.30;82.00;101702.69;4961979;28;20058;-74
2021/01/17 07:03:16;;;;;;;6.57;3.40;;;;;;;-1.30;82.04;101695.47;4974357;28;20121;-75
2021/01/17 07:05:44;;;;;;;5.35;3.35;;;;;;;-1.27;82.27;101707.69;4974982;28;20030;-75
2021/01/17 07:08:39;;;;;;;6.82;3.67;;;;;;;-1.27;82.24;101713.03;4974654;28;21371;-76
2021/01/17 07:11:21;;;;;;;7.80;3.92;;;;;;;-1.26;82.17;101714.69;4990720;28;20050;-74
2021/01/17 07:13:48;;;;;;;6.97;3.70;;;;;;;-1.26;81.99;101715.50;4974413;28;20046;-74
2021/01/17 07:16:14;;;;;;;6.95;4.07;;;;;;;-1.25;82.07;101717.22;4985220;28;20053;-74
2021/01/17 07:18:39;;;;;;;6.43;3.70;;;;;;;-1.22;82.31;101718.69;4974069;28;20113;-75
2021/01/17 07:21:05;;;;;;;6.50;3.70;;;;;;;-1.21;82.33;101725.72;4961794;28;20033;-75
2021/01/17 07:23:30;;;;;;;7.10;4.03;;;;;;;-1.19;82.26;101718.34;4974086;28;20038;-74
2021/01/17 07:25:56;;;;;;;6.20;4.10;;;;;;;-1.18;82.06;101731.53;4972758;28;20073;-75
2021/01/17 07:28:21;;;;;;;8.25;4.18;;;;;;;-1.17;82.34;101732.41;4986681;28;20046;-75
2021/01/17 07:30:59;;;;;;;7.07;3.97;;;;;;;-1.20;82.28;101738.94;4991649;28;20077;-75
2021/01/17 07:33:26;;;;;;;7.90;3.97;;;;;;;-1.19;82.42;101737.09;4972902;28;20669;-75
2021/01/17 07:35:53;;;;;;;6.70;3.90;;;;;;;-1.19;82.31;101734.41;4975328;28;20065;-73
2021/01/17 07:38:23;;;;;;;7.32;4.25;;;;;;;-1.19;82.31;101745.09;4999412;28;20105;-72
2021/01/17 07:41:05;;;;;;;8.18;4.38;;;;;;;-1.18;82.24;101736.88;4991303;28;20037;-75
2021/01/17 07:43:34;;;;;;;7.78;4.40;;;;;;;-1.16;81.92;101736.72;4967837;28;20463;-74
2021/01/17 07:46:01;;;;;;;7.07;4.15;;;;;;;-1.16;82.33;101742.91;4989007;28;20034;-73
2021/01/17 07:48:27;;;;;;;8.00;3.80;;;;;;;-1.15;82.22;101736.56;4986499;28;20038;-75
2021/01/17 07:50:56;;;;;;;6.65;3.83;;;;;;;-1.14;82.49;101740.91;4991121;28;20097;-73
2021/01/17 07:53:37;;;;;;;6.68;3.75;;;;;;;-1.14;82.18;101748.09;4982747;28;20113;-74
2021/01/17 07:56:08;;;;;;;7.32;4.35;;;;;;;-1.16;82.49;101740.25;4977417;28;20118;-73
2021/01/17 07:58:37;;;;;;;6.45;3.75;;;;;;;-1.13;82.44;101747.09;4978507;28;20053;-73
2021/01/17 08:01:02;;;;;;;7.07;3.97;;;;;;;-1.12;82.64;101746.94;4993253;28;20033;-74
2021/01/17 08:03:28;;;;;;;8.82;4.55;;;;;;;-1.10;82.35;101744.06;4974650;28;20042;-74
2021/01/17 08:05:54;;;;;;;6.20;3.95;;;;;;;-1.08;82.21;101743.91;4982363;28;20032;-74
2021/01/17 08:08:35;;;;;;;6.90;4.05;;;;;;;-1.08;82.24;101744.72;4989668;28;20034;-74
2021/01/17 08:11:01;;;;;;;9.75;4.60;;;;;;;-1.06;82.33;101740.03;4994289;28;20391;-73
2021/01/17 08:13:32;;;;;;;7.35;4.15;;;;;;;-1.06;82.45;101745.41;4979002;28;20026;-74
2021/01/17 08:16:14;;;;;;;6.78;3.40;;;;;;;-1.03;82.67;101744.22;4990547;28;20034;-74
2021/01/17 08:18:40;;;;;;;6.93;4.45;;;;;;;-1.03;82.48;101744.22;4986431;28;20117;-73
2021/01/17 08:21:20;;;;;;;9.13;4.72;;;;;;;-1.01;82.48;101743.03;4976972;28;20050;-75
2021/01/17 08:24:13;;;;;;;7.68;4.93;;;;;;;-0.99;82.49;101754.38;4985067;28;20061;-73
2021/01/17 08:27:00;;;;;;;8.90;4.80;;;;;;;-0.95;82.62;101758.41;4987923;28;20057;-74
2021/01/17 08:29:26;;;;;;;9.15;5.28;;;;;;;-0.95;82.32;101749.53;4992680;28;20030;-73
2021/01/17 08:31:52;;;;;;;8.30;4.53;;;;;;;-0.95;82.55;101747.69;4988089;28;20075;-73
2021/01/17 08:34:25;;;;;;;12.63;5.55;;;;;;;-0.92;82.38;101757.22;4975797;28;20038;-73
2021/01/17 08:36:50;;;;;;;9.30;5.20;;;;;;;-0.91;82.61;101754.34;4985909;28;20509;-74
2021/01/17 08:39:43;;;;;;;10.10;5.30;;;;;;;-0.87;82.59;101754.84;5003268;28;20026;-75
2021/01/17 08:42:30;;;;;;;8.15;4.57;;;;;;;-0.82;82.46;101757.00;4987187;28;20037;-73
2021/01/17 08:44:56;;;;;;;7.72;5.03;;;;;;;-0.79;82.47;101761.97;4988861;28;20788;-74
2021/01/17 08:47:22;;;;;;;10.00;5.53;;;;;;;-0.76;82.28;101759.00;4990943;28;20026;-74
2021/01/17 08:49:48;;;;;;;10.60;5.35;;;;;;;-0.73;82.27;101755.97;4975363;28;20010;-74
2021/01/17 08:52:14;;;;;;;10.55;4.82;;;;;;;-0.72;82.43;101762.97;4991315;28;20149;-73
2021/01/17 08:54:49;;;;;;;8.68;5.03;;;;;;;-0.69;82.16;101762.63;4991043;28;20026;-73
2021/01/17 08:57:52;;;;;;;8.75;5.00;;;;;;;-0.68;82.39;101767.81;4974970;28;20427;-74
2021/01/17 09:00:17;;;;;;;9.13;5.25;;;;;;;-0.62;82.36;101768.13;4991006;28;20018;-73
2021/01/17 09:02:43;;;;;;;13.20;5.68;;;;;;;-0.60;82.37;101772.28;4990442;28;20028;-74
2021/01/17 09:05:26;;;;;;;11.27;5.70;;;;;;;-0.57;82.50;101771.09;4992329;28;20631;-73
2021/01/17 09:07:51;;;;;;;9.80;5.35;;;;;;;-0.55;82.75;101774.41;4991002;28;20364;-73
2021/01/17 09:10:17;;;;;;;9.82;4.93;;;;;;;-0.53;82.35;101775.09;4990604;28;20030;-73
2021/01/17 09:12:42;;;;;;;8.18;5.28;;;;;;;-0.49;82.50;101779.94;4990607;28;20069;-72
2021/01/17 09:15:26;;;;;;;10.43;5.15;;;;;;;-0.43;82.54;101778.38;4990958;28;20038;-72
2021/01/17 09:17:58;;;;;;;12.50;6.22;;;;;;;-0.40;82.53;101783.38;4974306;28;20030;-73
2021/01/17 09:20:24;;;;;;;10.65;5.45;;;;;;;-0.36;82.64;101790.03;4990887;28;20019;-73
2021/01/17 09:22:50;;;;;;;10.48;5.47;;;;;;;-0.30;82.64;101791.19;4990730;28;20026;-73
2021/01/17 09:25:15;;;;;;;11.52;6.03;;;;;;;-0.28;82.66;101791.84;4990876;28;20038;-73
2021/01/17 09:27:40;;;;;;;10.45;6.22;;;;;;;-0.22;82.29;101796.50;4990686;28;20447;-73
2021/01/17 09:30:07;;;;;;;10.85;5.45;;;;;;;-0.24;82.56;101787.81;4974639;28;20472;-73
2021/01/17 09:32:33;;;;;;;9.13;5.22;;;;;;;-0.21;82.51;101798.16;4990567;28;20041;-73
2021/01/17 09:34:59;;;;;;;10.10;4.57;;;;;;;-0.16;82.47;101805.69;4990673;28;20069;-74
2021/01/17 09:37:24;;;;;;;10.32;5.35;;;;;;;-0.15;82.75;101801.97;4973126;28;20034;-73
2021/01/17 09:39:50;;;;;;;9.95;5.45;;;;;;;-0.17;82.33;101804.00;4972559;28;20030;-73
2021/01/17 09:42:17;;;;;;;8.65;5.60;;;;;;;-0.18;82.76;101803.19;4988861;28;20038;-73
2021/01/17 09:44:43;;;;;;;9.02;5.13;;;;;;;-0.14;82.52;101809.00;4988640;28;20031;-73
2021/01/17 09:47:19;;;;;;;10.30;5.35;;;;;;;-0.11;82.20;101809.50;4988829;28;20019;-73
2021/01/17 09:49:45;;;;;;;8.23;5.03;;;;;;;-0.03;82.67;101812.13;4989089;28;20042;-73
2021/01/17 09:52:14;;;;;;;9.38;5.32;;;;;;;0.05;82.15;101810.38;4972194;28;20023;-74
2021/01/17 09:54:39;;;;;;;12.00;5.65;;;;;;;0.12;82.18;101808.66;5002094;28;20117;-72
2021/01/17 09:57:18;;;;;;;12.02;6.10;;;;;;;0.21;82.34;101804.88;5002355;28;20045;-74
2021/01/17 09:59:44;;;;;;;7.85;4.82;;;;;;;0.25;82.65;101797.34;4988729;28;20026;-74
2021/01/17 10:02:09;;;;;;;7.63;4.25;;;;;;;0.32;82.32;101801.78;4989206;28;20030;-74
2021/01/17 10:04:35;;;;;;;8.85;4.88;;;;;;;0.37;82.73;101812.78;4987570;28;20100;-73
2021/01/17 10:07:00;;;;;;;10.68;4.75;;;;;;;0.44;82.11;101804.88;4989265;28;20030;-73
2021/01/17 10:09:26;;;;;;;9.48;5.00;;;;;;;0.46;82.24;101802.81;4991399;28;20033;-74
2021/01/17 10:12:01;;;;;;;8.32;5.35;;;;;;;0.47;82.04;101803.69;4980169;28;20026;-73
2021/01/17 10:14:30;;;;;;;9.02;4.75;;;;;;;0.47;82.17;101809.03;4975988;28;20476;-73
2021/01/17 10:16:57;;;;;;;7.80;4.88;;;;;;;0.51;82.16;101813.03;4987905;28;20089;-73
2021/01/17 10:19:27;;;;;;;9.68;5.28;;;;;;;0.51;82.14;101807.66;4980733;28;20023;-73
2021/01/17 10:21:52;;;;;;;7.18;3.97;;;;;;;0.52;82.16;101810.16;4981581;28;20038;-75
2021/01/17 10:24:25;;;;;;;10.10;5.35;;;;;;;0.52;82.06;101815.53;4985407;28;20125;-73
2021/01/17 10:26:52;;;;;;;7.93;4.90;;;;;;;0.54;82.00;101813.47;4976083;28;20046;-72
2021/01/17 10:29:30;;;;;;;8.45;5.07;;;;;;;0.54;82.22;101818.00;4956719;28;20018;-74
2021/01/17 10:31:58;;;;;;;8.32;4.50;;;;;;;0.52;82.24;101812.00;4978868;28;20050;-72
2021/01/17 10:34:24;;;;;;;7.13;4.70;;;;;;;0.55;82.29;101814.34;4972099;28;20029;-73
2021/01/17 10:36:49;;;;;;;8.05;4.90;;;;;;;0.54;82.26;101812.66;4979677;28;20460;-74
2021/01/17 10:39:19;;;;;;;8.75;5.32;;;;;;;0.56;82.65;101806.09;4988896;28;20101;-76
2021/01/17 10:41:44;;;;;;;7.18;4.25;;;;;;;0.63;82.13;101811.56;4971049;28;20380;-76
2021/01/17 10:44:11;;;;;;;7.50;4.30;;;;;;;0.65;82.18;101809.53;4978347;28;20033;-76
2021/01/17 10:46:37;;;;;;;6.63;3.72;;;;;;;0.69;82.08;101810.84;4948621;28;20106;-76
2021/01/17 10:49:06;;;;;;;5.28;3.50;;;;;;;0.75;82.00;101806.59;4990498;28;20501;-74
2021/01/17 10:51:41;;;;;;;8.52;4.38;;;;;;;0.84;82.15;101802.78;4973965;28;20029;-73
2021/01/17 10:54:06;;;;;;;6.93;3.88;;;;;;;0.90;81.50;101802.06;4982705;28;20033;-73
2021/01/17 10:56:32;;;;;;;7.35;3.70;;;;;;;0.86;81.69;101798.91;4980424;28;20048;-73
2021/01/17 10:58:57;;;;;;;8.45;4.25;;;;;;;0.85;81.83;101799.94;4958858;28;20082;-76
2021/01/17 11:01:30;;;;;;;7.00;3.80;;;;;;;0.87;81.54;101791.66;4990731;28;20476;-76
2021/01/17 11:03:55;;;;;;;6.82;4.00;;;;;;;0.89;81.48;101795.00;4985741;28;20311;-73
2021/01/17 11:06:23;;;;;;;7.43;4.28;;;;;;;0.88;81.56;101788.81;4974700;28;20053;-73
2021/01/17 11:08:50;;;;;;;5.68;3.90;;;;;;;0.82;81.80;101780.69;4986561;28;20022;-74
2021/01/17 11:11:16;;;;;;;9.50;5.10;;;;;;;0.77;81.17;101791.97;4992056;28;20022;-73
2021/01/17 11:13:41;;;;;;;9.15;4.78;;;;;;;0.74;82.02;101786.13;4982585;28;20034;-74
2021/01/17 11:16:07;;;;;;;9.38;4.75;;;;;;;0.75;81.82;101791.31;4990368;28;20030;-73
2021/01/17 11:18:33;;;;;;;10.90;5.43;;;;;;;0.69;81.18;101791.22;4967648;28;20038;-72
2021/01/17 11:20:59;;;;;;;8.27;4.78;;;;;;;0.58;81.54;101787.13;4991342;28;20058;-73
2021/01/17 11:23:25;;;;;;;9.02;5.30;;;;;;;0.51;81.38;101787.00;4982562;28;20045;-73
2021/01/17 11:26:02;;;;;;;7.70;4.85;;;;;;;0.49;81.96;101790.91;4989684;28;20022;-73
2021/01/17 11:28:28;;;;;;;6.78;4.28;;;;;;;0.47;81.52;101798.31;4991148;28;20042;-73
2021/01/17 11:30:57;;;;;;;7.53;4.50;;;;;;;0.48;81.75;101797.28;4991256;28;20046;-74